createdAt,value
2023-01-29T00:00:27.198Z,101405.52
2023-01-29T00:03:16.809Z,101414.06
2023-01-29T00:05:45.800Z,101419.98
2023-01-29T00:08:14.896Z,101416.48
2023-01-29T00:10:44.386Z,101401.03
2023-01-29T00:13:13.375Z,101396.01
2023-01-29T00:15:42.694Z,101392.55
2023-01-29T00:18:11.680Z,101395.05
2023-01-29T00:20:44.038Z,101385.53
2023-01-29T00:23:12.995Z,101386.40
2023-01-29T00:25:42.039Z,101384.63
2023-01-29T00:28:11.855Z,101370.87
2023-01-29T00:30:41.451Z,101375.92
2023-01-29T00:33:11.500Z,101377.58
2023-01-29T00:35:41.683Z,101363.85
2023-01-29T00:38:11.027Z,101368.97
2023-01-29T00:40:59.033Z,101370.56
2023-01-29T00:43:46.561Z,101372.16
2023-01-29T00:46:15.530Z,101365.27
2023-01-29T00:48:44.446Z,101358.39
2023-01-29T00:51:13.426Z,101361.05
2023-01-29T00:53:42.457Z,101371.98
2023-01-29T00:56:11.389Z,101353.10
2023-01-29T00:58:40.430Z,101354.00
2023-01-29T01:01:10.160Z,101347.98
2023-01-29T01:03:41.747Z,101354.80
2023-01-29T01:06:11.818Z,101348.81
2023-01-29T01:08:59.465Z,101340.23
2023-01-29T01:11:29.029Z,101321.46
2023-01-29T01:14:01.699Z,101314.48
2023-01-29T01:16:32.918Z,101309.30
2023-01-29T01:19:02.845Z,101299.86
2023-01-29T01:21:34.941Z,101303.20
2023-01-29T01:24:05.393Z,101300.58
2023-01-29T01:26:34.599Z,101300.66
2023-01-29T01:29:04.899Z,101305.77
2023-01-29T01:31:34.233Z,101305.77
2023-01-29T01:34:05.106Z,101302.34
2023-01-29T01:36:35.006Z,101302.34
2023-01-29T01:39:06.936Z,101306.56
2023-01-29T01:41:36.331Z,101306.56
2023-01-29T01:44:08.025Z,101309.92
2023-01-29T01:46:38.387Z,101300.58
2023-01-29T01:49:16.323Z,101300.58
2023-01-29T01:51:49.534Z,101303.08
2023-01-29T01:54:24.936Z,101313.31
2023-01-29T01:57:04.611Z,101315.87
2023-01-29T01:59:34.417Z,101315.03
2023-01-29T02:02:24.814Z,101307.36
2023-01-29T02:05:12.842Z,101305.63
2023-01-29T02:08:04.270Z,101318.49
2023-01-29T02:10:40.427Z,101310.75
2023-01-29T02:13:09.803Z,101306.43
2023-01-29T02:15:46.301Z,101315.87
2023-01-29T02:18:17.236Z,101311.55
2023-01-29T02:21:06.916Z,101317.53
2023-01-29T02:24:11.455Z,101314.11
2023-01-29T02:26:59.784Z,101310.64
2023-01-29T02:29:39.487Z,101303.77
2023-01-29T02:32:22.934Z,101299.55
2023-01-29T02:35:25.166Z,101284.99
2023-01-29T02:38:01.991Z,101293.53
2023-01-29T02:40:38.147Z,101286.66
2023-01-29T02:43:24.859Z,101291.77
2023-01-29T02:46:06.399Z,101288.42
2023-01-29T02:48:44.386Z,101286.66
2023-01-29T02:51:20.445Z,101279.88
2023-01-29T02:53:58.027Z,101278.19
2023-01-29T02:56:36.786Z,101273.07
2023-01-29T02:59:13.241Z,101274.77
2023-01-29T03:01:48.488Z,101280.67
2023-01-29T03:04:32.069Z,101276.42
2023-01-29T03:07:05.585Z,101270.44
2023-01-29T03:09:38.915Z,101263.63
2023-01-29T03:12:28.102Z,101264.53
2023-01-29T03:15:13.947Z,101261.17
2023-01-29T03:17:52.464Z,101257.65
2023-01-29T03:20:31.714Z,101260.20
2023-01-29T03:23:06.599Z,101274.77
2023-01-29T03:25:57.524Z,101264.36
2023-01-29T03:28:51.927Z,101259.31
2023-01-29T03:31:41.047Z,101255.89
2023-01-29T03:34:25.055Z,101259.24
2023-01-29T03:37:02.103Z,101264.42
2023-01-29T03:39:34.575Z,101267.09
2023-01-29T03:42:12.900Z,101256.86
2023-01-29T03:44:53.886Z,101252.60
2023-01-29T03:47:40.267Z,101262.83
2023-01-29T03:50:20.315Z,101265.49
2023-01-29T03:52:59.803Z,101267.16
2023-01-29T03:55:38.284Z,101260.37
2023-01-29T03:58:21.521Z,101255.26
2023-01-29T04:00:56.235Z,101251.08
2023-01-29T04:03:34.438Z,101247.65
2023-01-29T04:06:11.592Z,101248.52
2023-01-29T04:08:59.821Z,101244.30
2023-01-29T04:11:31.563Z,101241.73
2023-01-29T04:14:01.569Z,101248.61
2023-01-29T04:16:37.083Z,101246.06
2023-01-29T04:19:25.062Z,101240.20
2023-01-29T04:22:05.314Z,101241.00
2023-01-29T04:24:35.948Z,101229.11
2023-01-29T04:27:21.497Z,101228.21
2023-01-29T04:30:07.366Z,101226.55
2023-01-29T04:32:51.236Z,101222.30
2023-01-29T04:35:31.993Z,101221.44
2023-01-29T04:38:12.450Z,101224.79
2023-01-29T04:40:52.417Z,101219.73
2023-01-29T04:43:30.138Z,101225.66
2023-01-29T04:46:19.733Z,101221.50
2023-01-29T04:49:02.729Z,101230.04
2023-01-29T04:51:41.915Z,101225.82
2023-01-29T04:54:18.476Z,101217.34
2023-01-29T04:56:55.887Z,101218.14
2023-01-29T04:59:32.935Z,101206.22
2023-01-29T05:02:03.923Z,101200.30
2023-01-29T05:04:36.071Z,101200.30
2023-01-29T05:07:08.660Z,101203.75
2023-01-29T05:09:42.402Z,101199.50
2023-01-29T05:12:14.638Z,101199.44
2023-01-29T05:14:46.844Z,101199.44
2023-01-29T05:17:18.939Z,101211.42
2023-01-29T05:19:49.157Z,101201.99
2023-01-29T05:22:22.556Z,101203.66
2023-01-29T05:24:54.823Z,101196.88
2023-01-29T05:27:55.138Z,101197.73
2023-01-29T05:30:28.067Z,101196.88
2023-01-29T05:32:57.709Z,101196.08
2023-01-29T05:35:28.692Z,101187.50
2023-01-29T05:37:59.950Z,101181.52
2023-01-29T05:40:29.479Z,101175.61
2023-01-29T05:42:59.389Z,101180.78
2023-01-29T05:45:29.390Z,101188.47
2023-01-29T05:47:59.409Z,101185.91
2023-01-29T05:50:29.047Z,101179.98
2023-01-29T05:53:00.146Z,101180.85
2023-01-29T05:55:30.341Z,101171.41
2023-01-29T05:58:00.566Z,101176.63
2023-01-29T06:00:31.858Z,101178.39
2023-01-29T06:03:01.070Z,101171.58
2023-01-29T06:05:30.305Z,101173.27
2023-01-29T06:08:01.630Z,101176.70
2023-01-29T06:10:31.035Z,101185.27
2023-01-29T06:13:00.643Z,101181.02
2023-01-29T06:15:30.808Z,101184.47
2023-01-29T06:18:00.809Z,101189.66
2023-01-29T06:20:30.274Z,101188.75
2023-01-29T06:23:02.455Z,101189.72
2023-01-29T06:25:31.942Z,101186.36
2023-01-29T06:28:01.074Z,101193.17
2023-01-29T06:30:31.499Z,101193.23
2023-01-29T06:33:02.304Z,101188.18
2023-01-29T06:35:31.676Z,101186.59
2023-01-29T06:38:01.065Z,101186.68
2023-01-29T06:40:30.519Z,101189.24
2023-01-29T06:43:01.817Z,101177.37
2023-01-29T06:45:31.754Z,101181.78
2023-01-29T06:48:01.765Z,101183.45
2023-01-29T06:50:31.145Z,101180.98
2023-01-29T06:53:01.335Z,101185.30
2023-01-29T06:55:31.399Z,101181.05
2023-01-29T06:58:04.845Z,101185.37
2023-01-29T07:00:34.953Z,101180.31
2023-01-29T07:03:04.411Z,101182.08
2023-01-29T07:05:33.486Z,101188.16
2023-01-29T07:08:02.844Z,101177.91
2023-01-29T07:10:32.475Z,101172.05
2023-01-29T07:13:01.718Z,101152.47
2023-01-29T07:15:35.914Z,101148.21
2023-01-29T07:18:11.755Z,101142.29
2023-01-29T07:20:43.456Z,101145.80
2023-01-29T07:23:13.923Z,101162.19
2023-01-29T07:25:46.833Z,101164.81
2023-01-29T07:28:18.090Z,101165.86
2023-01-29T07:30:48.002Z,101161.66
2023-01-29T07:33:19.710Z,101164.38
2023-01-29T07:35:48.925Z,101169.60
2023-01-29T07:38:17.972Z,101183.33
2023-01-29T07:40:48.450Z,101183.42
2023-01-29T07:43:17.452Z,101187.80
2023-01-29T07:45:46.826Z,101183.64
2023-01-29T07:48:24.597Z,101188.09
2023-01-29T07:50:57.087Z,101182.25
2023-01-29T07:53:27.918Z,101183.27
2023-01-29T07:55:57.980Z,101185.09
2023-01-29T07:58:27.609Z,101175.80
2023-01-29T08:00:59.672Z,101165.77
2023-01-29T08:03:29.055Z,101161.75
2023-01-29T08:06:04.118Z,101163.63
2023-01-29T08:08:33.096Z,101162.08
2023-01-29T08:11:05.151Z,101170.72
2023-01-29T08:13:37.170Z,101163.03
2023-01-29T08:16:07.800Z,101161.42
2023-01-29T08:18:38.291Z,101158.86
2023-01-29T08:21:07.278Z,101144.43
2023-01-29T08:23:36.339Z,101146.19
2023-01-29T08:26:05.830Z,101149.70
2023-01-29T08:28:34.796Z,101147.14
2023-01-29T08:31:03.806Z,101149.77
2023-01-29T08:33:39.180Z,101142.13
2023-01-29T08:36:10.450Z,101144.04
2023-01-29T08:38:39.452Z,101144.19
2023-01-29T08:41:09.560Z,101151.98
2023-01-29T08:43:39.278Z,101154.75
2023-01-29T08:46:09.676Z,101150.73
2023-01-29T08:48:38.718Z,101150.18
2023-01-29T08:51:08.957Z,101152.08
2023-01-29T08:53:38.298Z,101143.64
2023-01-29T08:56:08.682Z,101134.38
2023-01-29T08:58:37.550Z,101138.84
2023-01-29T09:01:12.116Z,101135.48
2023-01-29T09:03:43.235Z,101136.62
2023-01-29T09:06:14.479Z,101127.64
2023-01-29T09:08:43.416Z,101124.76
2023-01-29T09:11:12.442Z,101120.14
2023-01-29T09:13:41.376Z,101114.52
2023-01-29T09:16:10.957Z,101106.33
2023-01-29T09:18:39.958Z,101099.94
2023-01-29T09:21:08.947Z,101103.55
2023-01-29T09:23:37.954Z,101095.92
2023-01-29T09:26:08.265Z,101092.77
2023-01-29T09:28:39.514Z,101093.89
2023-01-29T09:31:08.775Z,101096.38
2023-01-29T09:33:37.884Z,101102.23
2023-01-29T09:36:08.837Z,101096.73
2023-01-29T09:38:37.752Z,101104.17
2023-01-29T09:41:22.714Z,101098.05
2023-01-29T09:43:58.885Z,101092.09
2023-01-29T09:46:36.835Z,101087.14
2023-01-29T09:49:12.712Z,101083.12
2023-01-29T09:51:44.883Z,101084.37
2023-01-29T09:54:19.402Z,101073.64
2023-01-29T09:56:50.814Z,101074.92
2023-01-29T09:59:25.066Z,101064.27
2023-01-29T10:01:57.137Z,101064.03
2023-01-29T10:04:50.186Z,101056.27
2023-01-29T10:07:45.549Z,101062.20
2023-01-29T10:10:25.896Z,101053.78
2023-01-29T10:13:02.741Z,101056.31
2023-01-29T10:15:55.566Z,101050.16
2023-01-29T10:18:53.326Z,101049.81
2023-01-29T10:21:41.398Z,101040.95
2023-01-29T10:24:21.679Z,101042.44
2023-01-29T10:26:52.206Z,101043.02
2023-01-29T10:29:21.892Z,101046.36
2023-01-29T10:31:55.525Z,101042.77
2023-01-29T10:34:34.113Z,101047.67
2023-01-29T10:37:15.000Z,101047.34
2023-01-29T10:39:44.217Z,101040.28
2023-01-29T10:42:38.686Z,101049.49
2023-01-29T10:45:22.668Z,101041.53
2023-01-29T10:48:09.559Z,101036.14
2023-01-29T10:50:50.898Z,101039.52
2023-01-29T10:53:45.770Z,101046.29
2023-01-29T10:56:27.443Z,101035.75
2023-01-29T10:58:59.900Z,101032.07
2023-01-29T11:01:30.166Z,101032.93
2023-01-29T11:04:03.319Z,101022.83
2023-01-29T11:06:34.971Z,101017.00
2023-01-29T11:09:11.218Z,101011.91
2023-01-29T11:11:45.489Z,101005.19
2023-01-29T11:14:21.878Z,101006.20
2023-01-29T11:16:51.782Z,101011.51
2023-01-29T11:19:38.548Z,101007.35
2023-01-29T11:22:15.096Z,101004.09
2023-01-29T11:24:44.863Z,100994.83
2023-01-29T11:27:33.325Z,100989.00
2023-01-29T11:30:03.214Z,100979.73
2023-01-29T11:32:35.368Z,100979.08
2023-01-29T11:35:19.813Z,100966.39
2023-01-29T11:37:49.604Z,100961.36
2023-01-29T11:40:39.517Z,100956.22
2023-01-29T11:43:34.453Z,100945.98
2023-01-29T11:46:12.304Z,100946.76
2023-01-29T11:48:47.503Z,100935.50
2023-01-29T11:51:32.508Z,100937.02
2023-01-29T11:54:07.572Z,100925.77
2023-01-29T11:56:44.145Z,100932.39
2023-01-29T11:59:29.725Z,100941.57
2023-01-29T12:02:30.280Z,100923.38
2023-01-29T12:05:05.294Z,100916.45
2023-01-29T12:07:40.999Z,100922.24
2023-01-29T12:10:32.610Z,100911.64
2023-01-29T12:13:29.947Z,100918.25
2023-01-29T12:16:19.812Z,100909.36
2023-01-29T12:18:55.534Z,100911.84
2023-01-29T12:21:37.161Z,100904.02
2023-01-29T12:24:26.696Z,100889.30
2023-01-29T12:27:02.583Z,100897.83
2023-01-29T12:29:43.132Z,100900.34
2023-01-29T12:32:26.394Z,100889.95
2023-01-29T12:35:01.953Z,100886.41
2023-01-29T12:37:50.161Z,100888.03
2023-01-29T12:40:25.919Z,100881.11
2023-01-29T12:43:03.579Z,100878.41
2023-01-29T12:45:34.659Z,100873.23
2023-01-29T12:48:13.036Z,100866.34
2023-01-29T12:50:42.137Z,100863.78
2023-01-29T12:53:34.114Z,100863.73
2023-01-29T12:56:14.902Z,100861.09
2023-01-29T12:58:48.430Z,100855.96
2023-01-29T13:01:30.754Z,100855.05
2023-01-29T13:04:07.399Z,100842.15
2023-01-29T13:06:51.438Z,100849.84
2023-01-29T13:09:50.782Z,100850.57
2023-01-29T13:12:30.145Z,100864.22
2023-01-29T13:15:09.800Z,100870.04
2023-01-29T13:17:50.330Z,100870.73
2023-01-29T13:20:30.490Z,100878.33
2023-01-29T13:23:15.685Z,100884.28
2023-01-29T13:25:45.234Z,100885.01
2023-01-29T13:28:24.907Z,100883.29
2023-01-29T13:31:13.505Z,100873.84
2023-01-29T13:33:52.397Z,100875.47
2023-01-29T13:36:28.620Z,100872.90
2023-01-29T13:39:04.982Z,100867.69
2023-01-29T13:41:43.022Z,100868.45
2023-01-29T13:44:27.779Z,100852.12
2023-01-29T13:47:00.774Z,100844.33
2023-01-29T13:49:42.867Z,100839.03
2023-01-29T13:52:34.127Z,100838.78
2023-01-29T13:55:06.852Z,100837.79
2023-01-29T13:57:51.120Z,100848.00
2023-01-29T14:00:59.859Z,100833.42
2023-01-29T14:04:09.942Z,100828.17
2023-01-29T14:07:00.359Z,100836.72
2023-01-29T14:10:04.937Z,100839.19
2023-01-29T14:12:45.362Z,100847.69
2023-01-29T14:22:28.195Z,100867.13
2023-01-29T14:25:01.772Z,100875.63
2023-01-29T14:27:34.207Z,100875.59
2023-01-29T14:30:09.267Z,100861.02
2023-01-29T14:32:41.531Z,100846.48
2023-01-29T14:35:20.404Z,100847.34
2023-01-29T14:37:53.194Z,100854.18
2023-01-29T14:40:29.560Z,100847.34
2023-01-29T14:43:03.479Z,100828.45
2023-01-29T14:45:36.098Z,100833.49
2023-01-29T14:48:59.339Z,100830.88
2023-01-29T14:51:43.033Z,100826.61
2023-01-29T14:54:41.686Z,100829.18
2023-01-29T14:57:17.811Z,100835.15
2023-01-29T15:00:11.559Z,100845.41
2023-01-29T15:02:59.862Z,100853.14
2023-01-29T15:05:43.398Z,100856.56
2023-01-29T15:08:23.246Z,100850.63
2023-01-29T15:11:11.859Z,100847.20
2023-01-29T15:13:50.676Z,100850.58
2023-01-29T15:16:26.090Z,100843.75
2023-01-29T15:19:04.621Z,100835.15
2023-01-29T15:21:33.828Z,100832.50
2023-01-29T15:24:13.448Z,100825.62
2023-01-29T15:26:43.725Z,100835.02
2023-01-29T15:29:25.057Z,100817.84
2023-01-29T15:31:55.177Z,100812.63
2023-01-29T15:34:25.691Z,100809.25
2023-01-29T15:36:54.639Z,100813.52
2023-01-29T15:39:27.430Z,100802.38
2023-01-29T15:42:22.908Z,100805.83
2023-01-29T15:44:54.399Z,100811.81
2023-01-29T15:47:28.692Z,100799.81
2023-01-29T15:49:58.034Z,100798.14
2023-01-29T15:52:32.577Z,100791.31
2023-01-29T15:55:06.766Z,100792.13
2023-01-29T15:57:40.726Z,100787.80
2023-01-29T16:00:23.394Z,100777.55
2023-01-29T16:02:55.285Z,100775.80
2023-01-29T16:05:29.502Z,100785.20
2023-01-29T16:07:59.686Z,100782.50
2023-01-29T16:10:31.131Z,100776.56
2023-01-29T16:13:01.037Z,100780.88
2023-01-29T16:15:32.824Z,100780.88
2023-01-29T16:18:04.427Z,100781.73
2023-01-29T16:20:39.891Z,100793.75
2023-01-29T16:23:19.135Z,100797.20
2023-01-29T16:25:49.618Z,100790.45
2023-01-29T16:28:20.341Z,100789.52
2023-01-29T16:30:57.840Z,100791.27
2023-01-29T16:33:35.013Z,100792.07
2023-01-29T16:36:11.476Z,100792.07
2023-01-29T16:38:43.885Z,100802.33
2023-01-29T16:41:30.934Z,100801.52
2023-01-29T16:44:03.309Z,100807.50
2023-01-29T16:46:39.078Z,100800.70
2023-01-29T16:49:44.004Z,100791.27
2023-01-29T16:52:20.425Z,100792.13
2023-01-29T16:54:50.196Z,100800.63
2023-01-29T16:57:27.950Z,100795.58
2023-01-29T17:00:06.648Z,100794.77
2023-01-29T17:02:39.130Z,100788.80
2023-01-29T17:05:19.981Z,100785.42
2023-01-29T17:07:57.056Z,100789.73
2023-01-29T17:10:36.039Z,100780.30
2023-01-29T17:13:08.520Z,100777.73
2023-01-29T17:15:47.992Z,100772.61
2023-01-29T17:18:41.046Z,100765.80
2023-01-29T17:21:28.311Z,100760.68
2023-01-29T17:24:13.047Z,100763.29
2023-01-29T17:26:43.786Z,100754.73
2023-01-29T17:29:18.418Z,100754.73
2023-01-29T17:31:48.010Z,100750.47
2023-01-29T17:34:18.328Z,100754.79
2023-01-29T17:36:47.216Z,100747.09
2023-01-29T17:39:18.660Z,100738.55
2023-01-29T17:41:50.161Z,100731.72
2023-01-29T17:44:19.492Z,100733.30
2023-01-29T17:46:48.966Z,100725.61
2023-01-29T17:49:26.255Z,100718.73
2023-01-29T17:51:56.676Z,100708.52
2023-01-29T17:54:26.926Z,100694.84
2023-01-29T17:56:55.889Z,100692.28
2023-01-29T17:59:30.053Z,100684.59
2023-01-29T18:01:58.303Z,100687.11
2023-01-29T18:04:29.168Z,100685.36
2023-01-29T18:06:58.883Z,100680.23
2023-01-29T18:09:28.333Z,100665.67
2023-01-29T18:12:00.316Z,100667.42
2023-01-29T18:14:29.960Z,100656.36
2023-01-29T18:16:59.429Z,100653.79
2023-01-29T18:19:30.591Z,100644.40
2023-01-29T18:22:00.767Z,100650.34
2023-01-29T18:24:31.027Z,100646.10
2023-01-29T18:27:03.215Z,100652.90
2023-01-29T18:29:34.555Z,100649.48
2023-01-29T18:32:06.945Z,100648.66
2023-01-29T18:34:43.579Z,100652.09
2023-01-29T18:40:29.572Z,100644.44
2023-01-29T18:43:11.379Z,100637.56
2023-01-29T18:45:57.288Z,100638.41
2023-01-29T18:48:41.743Z,100635.85
2023-01-29T18:51:16.999Z,100632.44
2023-01-29T18:53:52.127Z,100640.13
2023-01-29T18:56:28.653Z,100635.00
2023-01-29T18:59:01.483Z,100641.95
2023-01-29T19:01:47.557Z,100635.12
2023-01-29T19:04:31.352Z,100622.31
2023-01-29T19:07:05.301Z,100623.24
2023-01-29T19:09:44.156Z,100618.97
2023-01-29T19:12:30.162Z,100622.47
2023-01-29T19:15:21.772Z,100619.98
2023-01-29T19:18:00.249Z,100620.03
2023-01-29T19:20:38.599Z,100618.32
2023-01-29T19:23:13.748Z,100625.20
2023-01-29T19:26:00.759Z,100616.69
2023-01-29T19:28:38.994Z,100615.88
2023-01-29T19:31:15.400Z,100613.39
2023-01-29T19:33:52.993Z,100607.38
2023-01-29T19:36:31.714Z,100603.13
2023-01-29T19:39:05.089Z,100606.56
2023-01-29T19:41:48.981Z,100590.31
2023-01-29T19:44:32.006Z,100598.01
2023-01-29T19:47:05.541Z,100593.69
2023-01-29T19:49:46.094Z,100592.80
2023-01-29T19:52:50.227Z,100580.88
2023-01-29T19:55:33.324Z,100578.31
2023-01-29T19:58:07.497Z,100571.48
2023-01-29T20:01:00.675Z,100563.78
2023-01-29T20:03:33.349Z,100571.48
2023-01-29T20:06:21.939Z,100572.37
2023-01-29T20:09:10.303Z,100568.09
2023-01-29T20:11:40.459Z,100557.84
2023-01-29T20:14:19.195Z,100551.02
2023-01-29T20:17:08.970Z,100541.61
2023-01-29T20:22:37.842Z,100537.33
2023-01-29T20:25:17.315Z,100530.50
2023-01-29T20:27:57.696Z,100533.06
2023-01-29T20:30:31.662Z,100527.08
2023-01-29T20:33:16.810Z,100524.55
2023-01-29T20:35:58.146Z,100523.70
2023-01-29T20:38:34.261Z,100512.63
2023-01-29T20:41:07.488Z,100503.23
2023-01-29T20:43:41.840Z,100497.24
2023-01-29T20:46:11.870Z,100492.11
2023-01-29T20:48:44.190Z,100486.17
2023-01-29T20:51:17.725Z,100473.28
2023-01-29T20:53:55.079Z,100486.17
2023-01-29T20:56:36.301Z,100473.35
2023-01-29T20:59:13.183Z,100472.46
2023-01-29T21:01:44.005Z,100461.39
2023-01-29T21:04:33.932Z,100469.08
2023-01-29T21:07:04.135Z,100464.84
2023-01-29T21:09:38.095Z,100463.14
2023-01-29T21:12:11.626Z,100466.59
2023-01-29T21:14:43.403Z,100460.61
2023-01-29T21:17:22.692Z,100468.30
2023-01-29T21:20:03.823Z,100462.35
2023-01-29T21:22:32.828Z,100458.94
2023-01-29T21:25:06.393Z,100461.50
2023-01-29T21:27:36.254Z,100463.17
2023-01-29T21:30:13.920Z,100458.12
2023-01-29T21:32:45.658Z,100458.12
2023-01-29T21:35:18.209Z,100453.03
2023-01-29T21:37:52.177Z,100450.46
2023-01-29T21:40:30.022Z,100453.91
2023-01-29T21:43:11.516Z,100454.81
2023-01-29T21:45:41.716Z,100448.01
2023-01-29T21:48:13.730Z,100454.88
2023-01-29T21:50:49.439Z,100444.66
2023-01-29T21:53:22.881Z,100435.30
2023-01-29T21:55:59.516Z,100426.78
2023-01-29T21:58:39.897Z,100426.78
2023-01-29T22:01:18.420Z,100434.48
2023-01-29T22:04:03.369Z,100416.52
2023-01-29T22:06:34.005Z,100415.74
2023-01-29T22:09:04.305Z,100416.59
2023-01-29T22:11:41.355Z,100408.97
2023-01-29T22:14:12.970Z,100403.84
2023-01-29T22:16:45.178Z,100397.05
2023-01-29T22:19:18.076Z,100396.22
2023-01-29T22:21:51.144Z,100382.55
2023-01-29T22:24:23.618Z,100382.55
2023-01-29T22:26:58.781Z,100375.70
2023-01-29T22:29:37.893Z,100373.20
2023-01-29T22:32:17.451Z,100363.80
2023-01-29T22:34:57.756Z,100357.86
2023-01-29T22:37:42.005Z,100361.31
2023-01-29T22:40:20.106Z,100351.94
2023-01-29T22:42:58.744Z,100341.75
2023-01-29T22:45:46.863Z,100334.09
2023-01-29T22:48:18.166Z,100328.14
2023-01-29T22:51:08.645Z,100310.21
2023-01-29T22:53:48.916Z,100309.39
2023-01-29T22:56:36.513Z,100303.44
2023-01-29T22:59:11.920Z,100304.33
2023-01-29T23:01:41.074Z,100293.24
2023-01-29T23:04:10.119Z,100283.87
2023-01-29T23:06:39.166Z,100280.45
2023-01-29T23:09:08.801Z,100265.98
2023-01-29T23:11:37.951Z,100267.72
2023-01-29T23:14:06.846Z,100260.91
2023-01-29T23:16:35.795Z,100260.97
2023-01-29T23:19:05.665Z,100251.56
2023-01-29T23:21:34.826Z,100254.19
2023-01-29T23:24:05.367Z,100254.22
2023-01-29T23:26:53.088Z,100250.80
2023-01-29T23:29:22.397Z,100239.69
2023-01-29T23:31:51.884Z,100231.95
2023-01-29T23:34:21.043Z,100228.59
2023-01-29T23:36:50.416Z,100225.21
2023-01-29T23:39:19.987Z,100226.95
2023-01-29T23:41:48.999Z,100225.27
2023-01-29T23:44:18.265Z,100220.17
2023-01-29T23:46:47.518Z,100221.02
2023-01-29T23:49:16.388Z,100209.94
2023-01-29T23:51:46.922Z,100204.80
2023-01-29T23:54:16.117Z,100202.30
2023-01-29T23:56:45.879Z,100204.89
2023-01-29T23:59:15.405Z,100199.79
